sensor_id;sensor_type;location;lat;lon;timestamp;temperature;humidity
23579;DHT22;11967;50.852;4.400;2023-03-30T00:01:51;17.00;99.90
23579;DHT22;11967;50.852;4.400;2023-03-30T00:04:19;16.90;99.90
23579;DHT22;11967;50.852;4.400;2023-03-30T00:06:47;16.90;99.90
23579;DHT22;11967;50.852;4.400;2023-03-30T00:09:14;17.00;99.90
23579;DHT22;11967;50.852;4.400;2023-03-30T00:11:40;17.00;99.90
23579;DHT22;11967;50.852;4.400;2023-03-30T00:14:07;17.00;99.90
23579;DHT22;11967;50.852;4.400;2023-03-30T00:16:33;16.90;99.90
23579;DHT22;11967;50.852;4.400;2023-03-30T00:18:58;17.00;99.90
23579;DHT22;11967;50.852;4.400;2023-03-30T00:21:24;17.00;99.90
23579;DHT22;11967;50.852;4.400;2023-03-30T00:23:51;16.90;99.90
23579;DHT22;11967;50.852;4.400;2023-03-30T00:26:17;16.90;99.90
23579;DHT22;11967;50.852;4.400;2023-03-30T00:28:44;16.80;99.90
23579;DHT22;11967;50.852;4.400;2023-03-30T00:31:11;16.90;99.90
23579;DHT22;11967;50.852;4.400;2023-03-30T00:33:37;16.90;99.90
23579;DHT22;11967;50.852;4.400;2023-03-30T00:36:02;16.90;99.90
23579;DHT22;11967;50.852;4.400;2023-03-30T00:38:28;16.90;99.90
23579;DHT22;11967;50.852;4.400;2023-03-30T00:40:56;16.90;99.90
23579;DHT22;11967;50.852;4.400;2023-03-30T00:43:24;16.90;99.90
23579;DHT22;11967;50.852;4.400;2023-03-30T00:45:51;16.90;99.90
23579;DHT22;11967;50.852;4.400;2023-03-30T00:48:28;16.90;99.90
23579;DHT22;11967;50.852;4.400;2023-03-30T00:51:03;16.90;99.90
23579;DHT22;11967;50.852;4.400;2023-03-30T00:53:40;16.90;99.90
23579;DHT22;11967;50.852;4.400;2023-03-30T00:56:09;16.90;99.90
23579;DHT22;11967;50.852;4.400;2023-03-30T00:58:36;16.90;99.90
23579;DHT22;11967;50.852;4.400;2023-03-30T01:01:06;16.80;99.90
23579;DHT22;11967;50.852;4.400;2023-03-30T01:03:36;16.80;99.90
23579;DHT22;11967;50.852;4.400;2023-03-30T01:06:05;16.90;99.90
23579;DHT22;11967;50.852;4.400;2023-03-30T01:08:35;16.90;99.90
23579;DHT22;11967;50.852;4.400;2023-03-30T01:11:03;16.70;99.90
23579;DHT22;11967;50.852;4.400;2023-03-30T01:13:31;16.70;99.90
23579;DHT22;11967;50.852;4.400;2023-03-30T01:35:39;16.60;99.90
23579;DHT22;11967;50.852;4.400;2023-03-30T01:43:52;16.60;99.90
23579;DHT22;11967;50.852;4.400;2023-03-30T01:46:30;16.70;99.90
23579;DHT22;11967;50.852;4.400;2023-03-30T01:49:13;16.80;99.90
23579;DHT22;11967;50.852;4.400;2023-03-30T01:51:46;16.60;99.90
23579;DHT22;11967;50.852;4.400;2023-03-30T01:54:21;16.60;99.90
23579;DHT22;11967;50.852;4.400;2023-03-30T01:56:53;16.50;99.90
23579;DHT22;11967;50.852;4.400;2023-03-30T01:59:26;16.50;99.90
23579;DHT22;11967;50.852;4.400;2023-03-30T02:01:54;16.50;99.90
23579;DHT22;11967;50.852;4.400;2023-03-30T02:04:29;16.50;99.90
23579;DHT22;11967;50.852;4.400;2023-03-30T02:07:00;16.60;99.90
23579;DHT22;11967;50.852;4.400;2023-03-30T02:09:29;16.60;99.90
23579;DHT22;11967;50.852;4.400;2023-03-30T02:11:55;16.70;99.90
23579;DHT22;11967;50.852;4.400;2023-03-30T02:14:24;16.70;99.90
23579;DHT22;11967;50.852;4.400;2023-03-30T02:17:22;16.80;99.90
23579;DHT22;11967;50.852;4.400;2023-03-30T02:19:48;16.80;99.90
23579;DHT22;11967;50.852;4.400;2023-03-30T02:22:15;16.70;99.90
23579;DHT22;11967;50.852;4.400;2023-03-30T02:24:43;16.70;99.90
23579;DHT22;11967;50.852;4.400;2023-03-30T02:27:11;16.60;99.90
23579;DHT22;11967;50.852;4.400;2023-03-30T02:29:41;16.70;99.90
23579;DHT22;11967;50.852;4.400;2023-03-30T02:32:17;16.70;99.90
23579;DHT22;11967;50.852;4.400;2023-03-30T02:37:37;16.50;99.90
23579;DHT22;11967;50.852;4.400;2023-03-30T02:40:35;16.60;99.90
23579;DHT22;11967;50.852;4.400;2023-03-30T02:53:47;16.50;99.90
23579;DHT22;11967;50.852;4.400;2023-03-30T02:56:26;16.40;99.90
23579;DHT22;11967;50.852;4.400;2023-03-30T02:59:16;16.40;99.90
23579;DHT22;11967;50.852;4.400;2023-03-30T03:01:51;16.40;99.90
23579;DHT22;11967;50.852;4.400;2023-03-30T03:04:18;16.40;99.90
23579;DHT22;11967;50.852;4.400;2023-03-30T03:06:47;16.40;99.90
23579;DHT22;11967;50.852;4.400;2023-03-30T03:09:18;16.40;99.90
23579;DHT22;11967;50.852;4.400;2023-03-30T03:11:43;16.40;99.90
23579;DHT22;11967;50.852;4.400;2023-03-30T03:14:09;16.40;99.90
23579;DHT22;11967;50.852;4.400;2023-03-30T03:16:36;16.30;99.90
23579;DHT22;11967;50.852;4.400;2023-03-30T03:19:03;16.30;99.90
23579;DHT22;11967;50.852;4.400;2023-03-30T03:21:28;16.30;99.90
23579;DHT22;11967;50.852;4.400;2023-03-30T03:23:57;16.40;99.90
23579;DHT22;11967;50.852;4.400;2023-03-30T03:26:23;16.20;99.90
23579;DHT22;11967;50.852;4.400;2023-03-30T03:28:49;16.20;99.90
23579;DHT22;11967;50.852;4.400;2023-03-30T03:31:14;16.10;99.90
23579;DHT22;11967;50.852;4.400;2023-03-30T03:33:40;16.20;99.90
23579;DHT22;11967;50.852;4.400;2023-03-30T03:36:06;16.20;99.90
23579;DHT22;11967;50.852;4.400;2023-03-30T03:38:31;16.20;99.90
23579;DHT22;11967;50.852;4.400;2023-03-30T03:40:58;16.20;99.90
23579;DHT22;11967;50.852;4.400;2023-03-30T03:43:24;16.30;99.90
23579;DHT22;11967;50.852;4.400;2023-03-30T03:45:51;16.20;99.90
23579;DHT22;11967;50.852;4.400;2023-03-30T03:48:18;16.20;99.90
23579;DHT22;11967;50.852;4.400;2023-03-30T03:50:44;16.20;99.90
23579;DHT22;11967;50.852;4.400;2023-03-30T03:53:14;16.20;99.90
23579;DHT22;11967;50.852;4.400;2023-03-30T03:55:40;16.30;99.90
23579;DHT22;11967;50.852;4.400;2023-03-30T03:58:06;16.30;99.90
23579;DHT22;11967;50.852;4.400;2023-03-30T04:00:32;16.30;99.90
23579;DHT22;11967;50.852;4.400;2023-03-30T04:02:59;16.30;99.90
23579;DHT22;11967;50.852;4.400;2023-03-30T04:05:25;16.20;99.90
23579;DHT22;11967;50.852;4.400;2023-03-30T04:07:52;16.10;99.90
23579;DHT22;11967;50.852;4.400;2023-03-30T04:10:18;16.10;99.90
23579;DHT22;11967;50.852;4.400;2023-03-30T04:12:45;16.10;99.90
23579;DHT22;11967;50.852;4.400;2023-03-30T04:15:11;16.10;99.90
23579;DHT22;11967;50.852;4.400;2023-03-30T04:17:37;16.10;99.90
23579;DHT22;11967;50.852;4.400;2023-03-30T04:20:07;16.10;99.90
23579;DHT22;11967;50.852;4.400;2023-03-30T04:22:35;16.00;99.90
23579;DHT22;11967;50.852;4.400;2023-03-30T04:25:01;15.90;99.90
23579;DHT22;11967;50.852;4.400;2023-03-30T04:27:31;15.90;99.90
23579;DHT22;11967;50.852;4.400;2023-03-30T04:29:57;15.90;99.90
23579;DHT22;11967;50.852;4.400;2023-03-30T04:32:24;16.00;99.90
23579;DHT22;11967;50.852;4.400;2023-03-30T04:34:50;16.00;99.90
23579;DHT22;11967;50.852;4.400;2023-03-30T04:37:20;15.90;99.90
23579;DHT22;11967;50.852;4.400;2023-03-30T04:39:57;15.90;99.90
23579;DHT22;11967;50.852;4.400;2023-03-30T04:42:27;15.80;99.90
23579;DHT22;11967;50.852;4.400;2023-03-30T04:44:55;15.90;99.90
23579;DHT22;11967;50.852;4.400;2023-03-30T04:47:22;15.90;99.90
23579;DHT22;11967;50.852;4.400;2023-03-30T04:49:48;15.80;99.90
23579;DHT22;11967;50.852;4.400;2023-03-30T04:52:14;15.80;99.90
23579;DHT22;11967;50.852;4.400;2023-03-30T04:54:39;15.70;99.90
23579;DHT22;11967;50.852;4.400;2023-03-30T04:57:05;15.60;99.90
23579;DHT22;11967;50.852;4.400;2023-03-30T04:59:31;15.70;99.90
23579;DHT22;11967;50.852;4.400;2023-03-30T05:01:57;15.60;99.90
23579;DHT22;11967;50.852;4.400;2023-03-30T05:04:23;15.60;99.90
23579;DHT22;11967;50.852;4.400;2023-03-30T05:06:48;15.70;99.90
23579;DHT22;11967;50.852;4.400;2023-03-30T05:09:15;15.60;99.90
23579;DHT22;11967;50.852;4.400;2023-03-30T05:11:41;15.50;99.90
23579;DHT22;11967;50.852;4.400;2023-03-30T05:14:06;15.50;99.90
23579;DHT22;11967;50.852;4.400;2023-03-30T05:16:32;15.40;99.90
23579;DHT22;11967;50.852;4.400;2023-03-30T05:18:57;15.40;99.90
23579;DHT22;11967;50.852;4.400;2023-03-30T05:21:23;15.30;99.90
23579;DHT22;11967;50.852;4.400;2023-03-30T05:23:49;15.30;99.90
23579;DHT22;11967;50.852;4.400;2023-03-30T05:26:15;15.30;99.90
23579;DHT22;11967;50.852;4.400;2023-03-30T05:28:41;15.30;99.90
23579;DHT22;11967;50.852;4.400;2023-03-30T05:31:08;15.30;99.90
23579;DHT22;11967;50.852;4.400;2023-03-30T05:33:34;15.40;99.90
23579;DHT22;11967;50.852;4.400;2023-03-30T05:35:59;15.50;99.90
23579;DHT22;11967;50.852;4.400;2023-03-30T05:38:25;15.50;99.90
23579;DHT22;11967;50.852;4.400;2023-03-30T05:40:52;15.40;99.90
23579;DHT22;11967;50.852;4.400;2023-03-30T05:43:18;15.40;99.90
23579;DHT22;11967;50.852;4.400;2023-03-30T05:45:43;15.30;99.90
23579;DHT22;11967;50.852;4.400;2023-03-30T05:48:09;15.10;99.90
23579;DHT22;11967;50.852;4.400;2023-03-30T05:50:35;15.10;99.90
23579;DHT22;11967;50.852;4.400;2023-03-30T05:53:04;15.10;99.90
23579;DHT22;11967;50.852;4.400;2023-03-30T05:55:30;15.20;99.90
23579;DHT22;11967;50.852;4.400;2023-03-30T05:57:56;15.10;99.90
23579;DHT22;11967;50.852;4.400;2023-03-30T06:00:22;15.00;99.90
23579;DHT22;11967;50.852;4.400;2023-03-30T06:02:48;15.00;99.90
23579;DHT22;11967;50.852;4.400;2023-03-30T06:05:14;15.00;99.90
23579;DHT22;11967;50.852;4.400;2023-03-30T06:07:39;15.00;99.90
23579;DHT22;11967;50.852;4.400;2023-03-30T06:10:06;15.00;99.90
23579;DHT22;11967;50.852;4.400;2023-03-30T06:12:32;15.00;99.90
23579;DHT22;11967;50.852;4.400;2023-03-30T06:14:58;15.10;99.90
23579;DHT22;11967;50.852;4.400;2023-03-30T06:17:27;15.00;99.90
23579;DHT22;11967;50.852;4.400;2023-03-30T06:19:54;15.10;99.90
23579;DHT22;11967;50.852;4.400;2023-03-30T06:22:19;15.00;99.90
23579;DHT22;11967;50.852;4.400;2023-03-30T06:24:46;15.00;99.90
23579;DHT22;11967;50.852;4.400;2023-03-30T06:27:11;15.00;99.90
23579;DHT22;11967;50.852;4.400;2023-03-30T06:29:37;15.20;99.90
23579;DHT22;11967;50.852;4.400;2023-03-30T06:32:03;15.20;99.90
23579;DHT22;11967;50.852;4.400;2023-03-30T06:34:29;15.00;99.90
23579;DHT22;11967;50.852;4.400;2023-03-30T06:36:55;15.00;99.90
23579;DHT22;11967;50.852;4.400;2023-03-30T06:39:21;15.00;99.90
23579;DHT22;11967;50.852;4.400;2023-03-30T06:41:47;15.00;99.90
23579;DHT22;11967;50.852;4.400;2023-03-30T06:44:14;14.90;99.90
23579;DHT22;11967;50.852;4.400;2023-03-30T06:46:40;14.80;99.90
23579;DHT22;11967;50.852;4.400;2023-03-30T06:49:06;14.90;99.90
23579;DHT22;11967;50.852;4.400;2023-03-30T06:51:33;14.80;99.90
23579;DHT22;11967;50.852;4.400;2023-03-30T06:54:02;14.80;99.90
23579;DHT22;11967;50.852;4.400;2023-03-30T06:56:28;14.70;99.90
23579;DHT22;11967;50.852;4.400;2023-03-30T06:58:54;14.70;99.90
23579;DHT22;11967;50.852;4.400;2023-03-30T07:01:22;14.70;99.90
23579;DHT22;11967;50.852;4.400;2023-03-30T07:03:51;14.70;99.90
23579;DHT22;11967;50.852;4.400;2023-03-30T07:06:25;14.80;99.90
23579;DHT22;11967;50.852;4.400;2023-03-30T07:08:54;14.70;99.90
23579;DHT22;11967;50.852;4.400;2023-03-30T07:11:20;14.50;99.90
23579;DHT22;11967;50.852;4.400;2023-03-30T07:13:46;14.40;99.90
23579;DHT22;11967;50.852;4.400;2023-03-30T07:16:12;14.40;99.90
23579;DHT22;11967;50.852;4.400;2023-03-30T07:18:38;14.40;99.90
23579;DHT22;11967;50.852;4.400;2023-03-30T07:21:03;14.30;99.90
23579;DHT22;11967;50.852;4.400;2023-03-30T07:23:29;14.30;99.90
23579;DHT22;11967;50.852;4.400;2023-03-30T07:25:55;14.40;99.90
23579;DHT22;11967;50.852;4.400;2023-03-30T07:28:21;14.30;99.90
23579;DHT22;11967;50.852;4.400;2023-03-30T07:30:47;14.50;99.90
23579;DHT22;11967;50.852;4.400;2023-03-30T07:33:12;14.70;99.90
23579;DHT22;11967;50.852;4.400;2023-03-30T07:35:44;14.80;99.90
23579;DHT22;11967;50.852;4.400;2023-03-30T07:38:10;14.90;99.90
23579;DHT22;11967;50.852;4.400;2023-03-30T07:40:36;15.00;99.90
23579;DHT22;11967;50.852;4.400;2023-03-30T07:43:02;15.10;99.90
23579;DHT22;11967;50.852;4.400;2023-03-30T07:45:28;15.10;99.90
23579;DHT22;11967;50.852;4.400;2023-03-30T07:47:53;15.10;99.90
23579;DHT22;11967;50.852;4.400;2023-03-30T07:50:19;15.00;99.90
23579;DHT22;11967;50.852;4.400;2023-03-30T07:52:45;14.90;99.90
23579;DHT22;11967;50.852;4.400;2023-03-30T07:55:11;14.90;99.90
23579;DHT22;11967;50.852;4.400;2023-03-30T07:57:37;14.80;99.90
23579;DHT22;11967;50.852;4.400;2023-03-30T08:00:03;14.80;99.90
23579;DHT22;11967;50.852;4.400;2023-03-30T08:02:30;14.70;99.90
23579;DHT22;11967;50.852;4.400;2023-03-30T08:04:55;14.70;99.90
23579;DHT22;11967;50.852;4.400;2023-03-30T08:07:22;14.60;99.90
23579;DHT22;11967;50.852;4.400;2023-03-30T08:09:47;14.70;99.90
23579;DHT22;11967;50.852;4.400;2023-03-30T08:12:14;14.60;99.90
23579;DHT22;11967;50.852;4.400;2023-03-30T08:14:39;14.60;99.90
23579;DHT22;11967;50.852;4.400;2023-03-30T08:17:05;14.50;99.90
23579;DHT22;11967;50.852;4.400;2023-03-30T08:19:31;14.60;99.90
23579;DHT22;11967;50.852;4.400;2023-03-30T08:21:57;14.60;99.90
23579;DHT22;11967;50.852;4.400;2023-03-30T08:24:22;14.70;99.90
23579;DHT22;11967;50.852;4.400;2023-03-30T08:26:48;14.60;99.90
23579;DHT22;11967;50.852;4.400;2023-03-30T08:29:13;14.50;99.90
23579;DHT22;11967;50.852;4.400;2023-03-30T08:31:39;14.50;99.90
23579;DHT22;11967;50.852;4.400;2023-03-30T08:34:05;14.50;99.90
23579;DHT22;11967;50.852;4.400;2023-03-30T08:36:32;14.40;99.90
23579;DHT22;11967;50.852;4.400;2023-03-30T08:38:58;14.40;99.90
23579;DHT22;11967;50.852;4.400;2023-03-30T08:46:24;14.50;99.90
23579;DHT22;11967;50.852;4.400;2023-03-30T08:48:50;14.60;99.90
23579;DHT22;11967;50.852;4.400;2023-03-30T08:51:28;14.80;99.90
23579;DHT22;11967;50.852;4.400;2023-03-30T08:53:56;14.60;99.90
23579;DHT22;11967;50.852;4.400;2023-03-30T09:02:16;14.80;99.90
23579;DHT22;11967;50.852;4.400;2023-03-30T09:07:24;14.80;99.90
23579;DHT22;11967;50.852;4.400;2023-03-30T09:09:51;14.80;99.90
23579;DHT22;11967;50.852;4.400;2023-03-30T09:12:37;14.80;99.90
23579;DHT22;11967;50.852;4.400;2023-03-30T09:15:10;14.80;99.90
23579;DHT22;11967;50.852;4.400;2023-03-30T09:17:49;14.70;99.90
23579;DHT22;11967;50.852;4.400;2023-03-30T09:20:28;14.70;99.90
23579;DHT22;11967;50.852;4.400;2023-03-30T09:23:00;14.90;99.90
23579;DHT22;11967;50.852;4.400;2023-03-30T09:28:13;14.80;99.90
23579;DHT22;11967;50.852;4.400;2023-03-30T09:30:52;14.70;99.90
23579;DHT22;11967;50.852;4.400;2023-03-30T09:33:43;14.60;99.90
23579;DHT22;11967;50.852;4.400;2023-03-30T09:36:14;14.60;99.90
23579;DHT22;11967;50.852;4.400;2023-03-30T09:38:41;14.60;99.90
23579;DHT22;11967;50.852;4.400;2023-03-30T09:41:36;14.70;99.90
23579;DHT22;11967;50.852;4.400;2023-03-30T09:44:12;14.70;99.90
23579;DHT22;11967;50.852;4.400;2023-03-30T09:46:40;14.70;99.90
23579;DHT22;11967;50.852;4.400;2023-03-30T09:49:15;14.60;99.90
23579;DHT22;11967;50.852;4.400;2023-03-30T09:52:06;14.60;99.90
23579;DHT22;11967;50.852;4.400;2023-03-30T09:54:39;14.60;99.90
23579;DHT22;11967;50.852;4.400;2023-03-30T09:57:28;14.60;99.90
23579;DHT22;11967;50.852;4.400;2023-03-30T09:59:55;14.50;99.90
23579;DHT22;11967;50.852;4.400;2023-03-30T10:02:23;14.60;99.90
23579;DHT22;11967;50.852;4.400;2023-03-30T10:07:33;14.60;99.90
23579;DHT22;11967;50.852;4.400;2023-03-30T10:10:52;14.50;99.90
23579;DHT22;11967;50.852;4.400;2023-03-30T10:12:50;14.50;99.90
23579;DHT22;11967;50.852;4.400;2023-03-30T10:15:22;14.50;99.90
23579;DHT22;11967;50.852;4.400;2023-03-30T10:17:52;14.40;99.90
23579;DHT22;11967;50.852;4.400;2023-03-30T10:20:28;14.30;99.90
23579;DHT22;11967;50.852;4.400;2023-03-30T10:23:13;14.20;99.90
23579;DHT22;11967;50.852;4.400;2023-03-30T10:25:41;14.10;99.90
23579;DHT22;11967;50.852;4.400;2023-03-30T10:28:24;14.20;99.90
23579;DHT22;11967;50.852;4.400;2023-03-30T10:31:01;14.20;99.90
23579;DHT22;11967;50.852;4.400;2023-03-30T10:33:29;14.40;99.90
23579;DHT22;11967;50.852;4.400;2023-03-30T10:35:58;14.50;99.90
23579;DHT22;11967;50.852;4.400;2023-03-30T10:38:31;14.60;99.90
23579;DHT22;11967;50.852;4.400;2023-03-30T10:41:07;14.80;99.90
23579;DHT22;11967;50.852;4.400;2023-03-30T10:43:34;14.90;99.90
23579;DHT22;11967;50.852;4.400;2023-03-30T10:46:18;15.10;99.90
23579;DHT22;11967;50.852;4.400;2023-03-30T10:48:47;15.00;99.90
23579;DHT22;11967;50.852;4.400;2023-03-30T10:54:10;14.80;99.90
23579;DHT22;11967;50.852;4.400;2023-03-30T10:56:50;14.70;99.90
23579;DHT22;11967;50.852;4.400;2023-03-30T11:05:14;14.70;99.90
23579;DHT22;11967;50.852;4.400;2023-03-30T11:08:07;14.80;99.90
23579;DHT22;11967;50.852;4.400;2023-03-30T11:10:36;15.00;99.90
23579;DHT22;11967;50.852;4.400;2023-03-30T11:13:25;15.00;99.90
23579;DHT22;11967;50.852;4.400;2023-03-30T11:15:58;15.20;99.90
23579;DHT22;11967;50.852;4.400;2023-03-30T11:18:31;15.20;99.90
23579;DHT22;11967;50.852;4.400;2023-03-30T11:21:04;15.20;99.90
23579;DHT22;11967;50.852;4.400;2023-03-30T11:26:19;15.10;99.90
23579;DHT22;11967;50.852;4.400;2023-03-30T11:29:02;15.20;99.90
23579;DHT22;11967;50.852;4.400;2023-03-30T11:31:58;15.50;99.90
23579;DHT22;11967;50.852;4.400;2023-03-30T11:40:24;15.90;99.90
23579;DHT22;11967;50.852;4.400;2023-03-30T11:42:52;16.00;99.90
23579;DHT22;11967;50.852;4.400;2023-03-30T11:45:50;16.10;99.90
23579;DHT22;11967;50.852;4.400;2023-03-30T11:53:59;16.30;99.90
23579;DHT22;11967;50.852;4.400;2023-03-30T11:59:04;16.60;99.90
23579;DHT22;11967;50.852;4.400;2023-03-30T12:01:42;16.60;99.90
23579;DHT22;11967;50.852;4.400;2023-03-30T12:04:14;16.60;99.90
23579;DHT22;11967;50.852;4.400;2023-03-30T12:06:47;16.60;99.90
23579;DHT22;11967;50.852;4.400;2023-03-30T12:09:33;16.60;99.90
23579;DHT22;11967;50.852;4.400;2023-03-30T12:12:13;16.60;99.90
23579;DHT22;11967;50.852;4.400;2023-03-30T12:15:13;16.70;99.90
23579;DHT22;11967;50.852;4.400;2023-03-30T12:20:52;16.90;99.90
23579;DHT22;11967;50.852;4.400;2023-03-30T12:26:16;16.80;99.90
23579;DHT22;11967;50.852;4.400;2023-03-30T12:34:27;16.60;99.90
23579;DHT22;11967;50.852;4.400;2023-03-30T12:39:45;16.50;99.90
23579;DHT22;11967;50.852;4.400;2023-03-30T12:42:25;16.60;99.90
23579;DHT22;11967;50.852;4.400;2023-03-30T12:53:20;16.70;99.90
23579;DHT22;11967;50.852;4.400;2023-03-30T13:01:43;16.60;99.90
23579;DHT22;11967;50.852;4.400;2023-03-30T13:04:15;16.70;99.90
23579;DHT22;11967;50.852;4.400;2023-03-30T13:07:02;16.70;99.90
23579;DHT22;11967;50.852;4.400;2023-03-30T13:09:32;16.60;99.90
23579;DHT22;11967;50.852;4.400;2023-03-30T13:14:44;16.50;99.90
23579;DHT22;11967;50.852;4.400;2023-03-30T13:17:16;16.40;99.90
23579;DHT22;11967;50.852;4.400;2023-03-30T13:19:45;16.40;99.90
23579;DHT22;11967;50.852;4.400;2023-03-30T13:25:19;16.40;99.90
23579;DHT22;11967;50.852;4.400;2023-03-30T13:27:51;16.40;99.90
23579;DHT22;11967;50.852;4.400;2023-03-30T13:30:18;16.40;99.90
23579;DHT22;11967;50.852;4.400;2023-03-30T13:33:17;16.50;99.90
23579;DHT22;11967;50.852;4.400;2023-03-30T13:41:17;16.60;99.90
23579;DHT22;11967;50.852;4.400;2023-03-30T13:50:03;16.50;99.90
23579;DHT22;11967;50.852;4.400;2023-03-30T13:52:35;16.50;99.90
23579;DHT22;11967;50.852;4.400;2023-03-30T13:55:04;16.40;99.90
23579;DHT22;11967;50.852;4.400;2023-03-30T13:57:36;16.40;99.90
23579;DHT22;11967;50.852;4.400;2023-03-30T14:02:59;16.30;99.90
23579;DHT22;11967;50.852;4.400;2023-03-30T14:05:40;16.40;99.90
23579;DHT22;11967;50.852;4.400;2023-03-30T14:08:08;16.30;99.90
23579;DHT22;11967;50.852;4.400;2023-03-30T14:10:36;16.40;99.90
23579;DHT22;11967;50.852;4.400;2023-03-30T14:13:02;16.50;99.90
23579;DHT22;11967;50.852;4.400;2023-03-30T14:15:34;16.50;99.90
23579;DHT22;11967;50.852;4.400;2023-03-30T14:18:02;16.50;99.90
23579;DHT22;11967;50.852;4.400;2023-03-30T14:20:49;16.40;99.90
23579;DHT22;11967;50.852;4.400;2023-03-30T14:25:58;16.40;99.90
23579;DHT22;11967;50.852;4.400;2023-03-30T14:28:26;16.30;99.90
23579;DHT22;11967;50.852;4.400;2023-03-30T14:33:20;16.20;99.90
23579;DHT22;11967;50.852;4.400;2023-03-30T14:35:49;16.20;99.90
23579;DHT22;11967;50.852;4.400;2023-03-30T14:40:44;16.20;99.90
23579;DHT22;11967;50.852;4.400;2023-03-30T14:43:14;16.20;99.90
23579;DHT22;11967;50.852;4.400;2023-03-30T14:45:41;16.20;99.90
23579;DHT22;11967;50.852;4.400;2023-03-30T14:48:32;16.00;99.90
23579;DHT22;11967;50.852;4.400;2023-03-30T14:51:00;15.90;99.90
23579;DHT22;11967;50.852;4.400;2023-03-30T14:53:27;15.70;99.90
23579;DHT22;11967;50.852;4.400;2023-03-30T14:55:56;15.40;99.90
23579;DHT22;11967;50.852;4.400;2023-03-30T14:58:24;15.40;99.90
23579;DHT22;11967;50.852;4.400;2023-03-30T15:00:59;15.40;99.90
23579;DHT22;11967;50.852;4.400;2023-03-30T15:03:32;15.30;99.90
23579;DHT22;11967;50.852;4.400;2023-03-30T15:06:02;15.30;99.90
23579;DHT22;11967;50.852;4.400;2023-03-30T15:08:33;15.30;99.90
23579;DHT22;11967;50.852;4.400;2023-03-30T15:11:06;15.20;99.90
23579;DHT22;11967;50.852;4.400;2023-03-30T15:13:40;15.20;99.90
23579;DHT22;11967;50.852;4.400;2023-03-30T15:16:14;15.30;99.90
23579;DHT22;11967;50.852;4.400;2023-03-30T15:18:41;15.40;99.90
23579;DHT22;11967;50.852;4.400;2023-03-30T15:21:08;15.40;99.90
23579;DHT22;11967;50.852;4.400;2023-03-30T15:23:38;15.50;99.90
23579;DHT22;11967;50.852;4.400;2023-03-30T15:26:07;15.50;99.90
23579;DHT22;11967;50.852;4.400;2023-03-30T15:28:55;15.40;99.90
23579;DHT22;11967;50.852;4.400;2023-03-30T15:31:22;15.60;99.90
23579;DHT22;11967;50.852;4.400;2023-03-30T15:33:53;15.50;99.90
23579;DHT22;11967;50.852;4.400;2023-03-30T15:38:58;15.70;99.90
23579;DHT22;11967;50.852;4.400;2023-03-30T15:44:22;15.80;99.90
23579;DHT22;11967;50.852;4.400;2023-03-30T15:46:49;15.80;99.90
23579;DHT22;11967;50.852;4.400;2023-03-30T15:49:18;15.80;99.90
23579;DHT22;11967;50.852;4.400;2023-03-30T15:51:47;15.70;99.90
23579;DHT22;11967;50.852;4.400;2023-03-30T15:54:22;15.90;99.90
23579;DHT22;11967;50.852;4.400;2023-03-30T16:02:18;15.90;99.90
23579;DHT22;11967;50.852;4.400;2023-03-30T16:05:03;15.90;99.90
23579;DHT22;11967;50.852;4.400;2023-03-30T16:07:30;15.80;99.90
23579;DHT22;11967;50.852;4.400;2023-03-30T16:09:56;15.80;99.90
23579;DHT22;11967;50.852;4.400;2023-03-30T16:15:30;15.90;99.90
23579;DHT22;11967;50.852;4.400;2023-03-30T16:17:56;15.90;99.90
23579;DHT22;11967;50.852;4.400;2023-03-30T16:20:27;16.00;99.90
23579;DHT22;11967;50.852;4.400;2023-03-30T16:22:53;16.10;99.90
23579;DHT22;11967;50.852;4.400;2023-03-30T16:25:21;16.00;99.90
23579;DHT22;11967;50.852;4.400;2023-03-30T16:27:48;15.90;99.90
23579;DHT22;11967;50.852;4.400;2023-03-30T16:30:29;15.90;99.90
23579;DHT22;11967;50.852;4.400;2023-03-30T16:32:59;15.80;99.90
23579;DHT22;11967;50.852;4.400;2023-03-30T16:35:25;15.80;99.90
23579;DHT22;11967;50.852;4.400;2023-03-30T16:37:51;15.80;99.90
23579;DHT22;11967;50.852;4.400;2023-03-30T16:40:35;15.90;99.90
23579;DHT22;11967;50.852;4.400;2023-03-30T16:43:02;16.00;99.90
23579;DHT22;11967;50.852;4.400;2023-03-30T16:45:33;16.00;99.90
23579;DHT22;11967;50.852;4.400;2023-03-30T16:48:03;16.00;99.90
23579;DHT22;11967;50.852;4.400;2023-03-30T16:50:44;16.10;99.90
23579;DHT22;11967;50.852;4.400;2023-03-30T16:53:11;16.10;99.90
23579;DHT22;11967;50.852;4.400;2023-03-30T16:55:37;16.10;99.90
23579;DHT22;11967;50.852;4.400;2023-03-30T16:58:04;16.20;99.90
23579;DHT22;11967;50.852;4.400;2023-03-30T17:00:35;16.20;99.90
23579;DHT22;11967;50.852;4.400;2023-03-30T17:03:02;16.20;99.90
23579;DHT22;11967;50.852;4.400;2023-03-30T17:05:27;16.20;99.90
23579;DHT22;11967;50.852;4.400;2023-03-30T17:07:55;16.20;99.90
23579;DHT22;11967;50.852;4.400;2023-03-30T17:10:26;16.20;99.90
23579;DHT22;11967;50.852;4.400;2023-03-30T17:12:54;16.10;99.90
23579;DHT22;11967;50.852;4.400;2023-03-30T17:15:21;16.10;99.90
23579;DHT22;11967;50.852;4.400;2023-03-30T17:17:48;16.00;99.90
23579;DHT22;11967;50.852;4.400;2023-03-30T17:20:18;16.10;99.90
23579;DHT22;11967;50.852;4.400;2023-03-30T17:22:44;16.10;99.90
23579;DHT22;11967;50.852;4.400;2023-03-30T17:25:10;16.10;99.90
23579;DHT22;11967;50.852;4.400;2023-03-30T17:27:36;16.10;99.90
23579;DHT22;11967;50.852;4.400;2023-03-30T17:30:03;16.10;99.90
23579;DHT22;11967;50.852;4.400;2023-03-30T17:32:38;16.10;99.90
23579;DHT22;11967;50.852;4.400;2023-03-30T17:35:05;16.20;99.90
23579;DHT22;11967;50.852;4.400;2023-03-30T17:37:31;16.10;99.90
23579;DHT22;11967;50.852;4.400;2023-03-30T17:39:57;16.10;99.90
23579;DHT22;11967;50.852;4.400;2023-03-30T17:42:22;16.20;99.90
23579;DHT22;11967;50.852;4.400;2023-03-30T17:44:48;16.20;99.90
23579;DHT22;11967;50.852;4.400;2023-03-30T17:47:14;16.10;99.90
23579;DHT22;11967;50.852;4.400;2023-03-30T17:49:40;16.00;99.90
23579;DHT22;11967;50.852;4.400;2023-03-30T17:52:05;16.00;99.90
23579;DHT22;11967;50.852;4.400;2023-03-30T17:54:31;16.00;99.90
23579;DHT22;11967;50.852;4.400;2023-03-30T17:56:57;16.10;99.90
23579;DHT22;11967;50.852;4.400;2023-03-30T17:59:23;16.20;99.90
23579;DHT22;11967;50.852;4.400;2023-03-30T18:01:48;16.20;99.90
23579;DHT22;11967;50.852;4.400;2023-03-30T18:04:14;16.40;99.90
23579;DHT22;11967;50.852;4.400;2023-03-30T18:06:39;16.50;99.90
23579;DHT22;11967;50.852;4.400;2023-03-30T18:09:14;16.60;99.90
23579;DHT22;11967;50.852;4.400;2023-03-30T18:11:42;16.50;99.90
23579;DHT22;11967;50.852;4.400;2023-03-30T18:14:08;16.60;99.90
23579;DHT22;11967;50.852;4.400;2023-03-30T18:16:40;16.60;99.90
23579;DHT22;11967;50.852;4.400;2023-03-30T18:19:09;16.70;99.90
23579;DHT22;11967;50.852;4.400;2023-03-30T18:21:35;16.70;99.90